createdAt,value
2018-05-23T00:01:22.753Z,15.50
2018-05-23T00:03:50.181Z,15.50
2018-05-23T00:06:17.613Z,15.50
2018-05-23T00:08:45.050Z,15.50
2018-05-23T00:11:13.236Z,15.50
2018-05-23T00:13:41.437Z,15.50
2018-05-23T00:16:08.863Z,15.50
2018-05-23T00:18:36.297Z,15.50
2018-05-23T00:21:03.720Z,15.50
2018-05-23T00:23:31.960Z,15.40
2018-05-23T00:25:59.385Z,15.40
2018-05-23T00:28:27.585Z,15.40
2018-05-23T00:30:55.045Z,15.40
2018-05-23T00:33:23.225Z,15.30
2018-05-23T00:35:51.434Z,15.30
2018-05-23T00:38:19.613Z,15.30
2018-05-23T00:40:47.833Z,15.30
2018-05-23T00:43:15.295Z,15.30
2018-05-23T00:45:42.724Z,15.30
2018-05-23T00:48:10.949Z,15.30
2018-05-23T00:50:38.378Z,15.20
2018-05-23T00:53:05.825Z,15.20
2018-05-23T00:55:34.085Z,15.20
2018-05-23T00:58:01.465Z,15.20
2018-05-23T01:00:28.880Z,15.20
2018-05-23T01:02:57.082Z,15.20
2018-05-23T01:05:24.509Z,15.20
2018-05-23T01:07:51.949Z,15.30
2018-05-23T01:10:19.368Z,15.20
2018-05-23T01:12:46.784Z,15.20
2018-05-23T01:15:14.208Z,15.20
2018-05-23T01:17:42.401Z,15.20
2018-05-23T01:20:10.693Z,15.10
2018-05-23T01:22:38.115Z,15.10
2018-05-23T01:25:05.577Z,15.20
2018-05-23T01:27:32.999Z,15.20
2018-05-23T01:30:01.205Z,15.30
2018-05-23T01:32:28.645Z,15.30
2018-05-23T01:34:56.083Z,15.30
2018-05-23T01:37:23.510Z,15.20
2018-05-23T01:39:50.945Z,15.10
2018-05-23T01:42:19.207Z,15.10
2018-05-23T01:44:46.615Z,15.10
2018-05-23T01:47:14.805Z,15.00
2018-05-23T01:49:42.238Z,15.00
2018-05-23T01:52:09.689Z,15.00
2018-05-23T01:54:37.174Z,15.00
2018-05-23T01:57:04.596Z,15.00
2018-05-23T01:59:32.043Z,15.10
2018-05-23T02:02:00.242Z,15.00
2018-05-23T02:04:27.678Z,15.00
2018-05-23T02:06:55.100Z,15.00
2018-05-23T02:09:22.524Z,15.00
2018-05-23T02:11:49.935Z,15.00
2018-05-23T02:14:17.361Z,15.00
2018-05-23T02:16:45.562Z,15.10
2018-05-23T02:19:13.763Z,15.10
2018-05-23T02:21:41.944Z,15.10
2018-05-23T02:24:09.382Z,15.10
2018-05-23T02:26:36.824Z,15.10
2018-05-23T02:29:04.276Z,15.20
2018-05-23T02:31:31.692Z,15.20
2018-05-23T02:33:59.121Z,15.20
2018-05-23T02:36:26.557Z,15.20
2018-05-23T02:38:53.988Z,15.20
2018-05-23T02:41:21.518Z,15.20
2018-05-23T02:43:48.954Z,15.30
2018-05-23T02:46:19.976Z,15.30
2018-05-23T02:48:47.431Z,15.20
2018-05-23T02:51:14.878Z,15.20
2018-05-23T02:53:42.297Z,15.20
2018-05-23T02:56:09.721Z,15.30
2018-05-23T02:58:37.156Z,15.30
2018-05-23T03:01:05.356Z,15.30
2018-05-23T03:03:32.787Z,15.30
2018-05-23T03:06:00.212Z,15.30
2018-05-23T03:08:27.646Z,15.30
2018-05-23T03:10:55.836Z,15.30
2018-05-23T03:13:23.276Z,15.20
2018-05-23T03:15:50.705Z,15.30
2018-05-23T03:18:18.413Z,15.30
2018-05-23T03:20:45.827Z,15.30
2018-05-23T03:23:13.293Z,15.30
2018-05-23T03:25:40.752Z,15.30
2018-05-23T03:28:08.173Z,15.30
2018-05-23T03:30:35.597Z,15.30
2018-05-23T03:33:03.802Z,15.40
2018-05-23T03:35:31.232Z,15.30
2018-05-23T03:37:58.663Z,15.40
2018-05-23T03:40:26.083Z,15.40
2018-05-23T03:42:54.265Z,15.30
2018-05-23T03:45:22.462Z,15.30
2018-05-23T03:47:50.667Z,15.30
2018-05-23T03:50:18.109Z,15.30
2018-05-23T03:52:45.530Z,15.40
2018-05-23T03:55:13.076Z,15.40
2018-05-23T03:57:40.625Z,15.40
2018-05-23T04:00:20.805Z,15.40
2018-05-23T04:03:00.881Z,15.50
2018-05-23T04:05:40.124Z,15.40
2018-05-23T04:08:07.541Z,15.50
2018-05-23T04:10:34.985Z,15.50
2018-05-23T04:13:02.428Z,15.50
2018-05-23T04:15:30.697Z,15.50
2018-05-23T04:17:58.057Z,15.50
2018-05-23T04:20:25.478Z,15.50
2018-05-23T04:22:52.917Z,15.50
2018-05-23T04:25:21.116Z,15.60
2018-05-23T04:27:49.317Z,15.60
2018-05-23T04:30:16.752Z,15.70
2018-05-23T04:32:44.177Z,15.70
2018-05-23T04:35:11.610Z,15.70
2018-05-23T04:37:39.796Z,15.70
2018-05-23T04:40:07.979Z,15.70
2018-05-23T04:42:36.201Z,15.70
2018-05-23T04:45:03.634Z,15.70
2018-05-23T04:47:31.859Z,15.70
2018-05-23T04:49:59.296Z,15.70
2018-05-23T04:52:27.491Z,15.80
2018-05-23T04:54:55.678Z,15.80
2018-05-23T04:57:23.114Z,15.80
2018-05-23T04:59:50.542Z,15.90
2018-05-23T05:02:17.981Z,15.90
2018-05-23T05:04:46.186Z,16.00
2018-05-23T05:07:13.694Z,16.00
2018-05-23T05:09:41.939Z,16.00
2018-05-23T05:12:09.370Z,16.00
2018-05-23T05:14:36.905Z,16.10
2018-05-23T05:17:04.329Z,16.10
2018-05-23T05:19:32.521Z,16.10
2018-05-23T05:21:59.952Z,16.10
2018-05-23T05:24:27.431Z,16.10
2018-05-23T05:26:54.860Z,16.10
2018-05-23T05:29:22.288Z,16.10
2018-05-23T05:31:50.507Z,16.10
2018-05-23T05:34:18.707Z,16.10
2018-05-23T05:36:46.528Z,16.10
2018-05-23T05:39:13.956Z,16.10
2018-05-23T05:41:41.397Z,16.10
2018-05-23T05:44:09.589Z,16.00
2018-05-23T05:46:37.059Z,16.00
2018-05-23T05:49:04.504Z,16.00
2018-05-23T05:51:32.744Z,15.90
2018-05-23T05:54:00.189Z,15.90
2018-05-23T05:56:27.617Z,15.90
2018-05-23T05:58:55.042Z,16.00
2018-05-23T06:01:22.581Z,16.00
2018-05-23T06:03:49.989Z,16.00
2018-05-23T06:06:17.415Z,15.90
2018-05-23T06:08:45.703Z,15.90
2018-05-23T06:11:13.896Z,16.00
2018-05-23T06:13:42.116Z,16.00
2018-05-23T06:16:09.545Z,15.90
2018-05-23T06:18:36.984Z,16.00
2018-05-23T06:21:05.207Z,16.00
2018-05-23T06:23:32.709Z,16.00
2018-05-23T06:26:00.181Z,16.00
2018-05-23T06:28:28.344Z,16.10
2018-05-23T06:30:56.548Z,16.10
2018-05-23T06:33:23.992Z,16.10
2018-05-23T06:35:52.299Z,16.20
2018-05-23T06:38:20.474Z,16.20
2018-05-23T06:40:48.681Z,16.20
2018-05-23T06:43:16.165Z,16.20
2018-05-23T06:45:43.584Z,16.20
2018-05-23T06:48:11.030Z,16.20
2018-05-23T06:50:38.483Z,16.30
2018-05-23T06:53:05.921Z,16.40
2018-05-23T06:55:33.386Z,16.50
2018-05-23T06:58:01.587Z,16.60
2018-05-23T07:00:29.774Z,16.70
2018-05-23T07:02:57.186Z,16.70
2018-05-23T07:05:24.616Z,16.80
2018-05-23T07:07:52.048Z,16.80
2018-05-23T07:10:19.468Z,16.90
2018-05-23T07:12:46.930Z,17.00
2018-05-23T07:15:14.345Z,17.10
2018-05-23T07:17:41.772Z,17.10
2018-05-23T07:20:09.204Z,17.10
2018-05-23T07:22:37.388Z,17.10
2018-05-23T07:25:05.590Z,17.00
2018-05-23T07:27:33.806Z,16.90
2018-05-23T07:30:01.241Z,16.90
2018-05-23T07:32:29.449Z,16.70
2018-05-23T07:34:56.892Z,16.70
2018-05-23T07:37:24.329Z,16.60
2018-05-23T07:39:51.758Z,16.60
2018-05-23T07:42:19.217Z,16.60
2018-05-23T07:44:47.461Z,16.60
2018-05-23T07:47:14.892Z,16.60
2018-05-23T07:49:42.337Z,16.60
2018-05-23T07:52:10.529Z,16.60
2018-05-23T07:54:38.733Z,16.50
2018-05-23T07:57:06.162Z,16.50
2018-05-23T07:59:33.590Z,16.50
2018-05-23T08:02:01.024Z,16.50
2018-05-23T08:04:29.219Z,16.60
2018-05-23T08:06:56.664Z,16.60
2018-05-23T08:09:24.090Z,16.60
2018-05-23T08:11:51.559Z,16.80
2018-05-23T08:14:19.129Z,16.80
2018-05-23T08:16:46.564Z,16.90
2018-05-23T08:19:13.989Z,17.00
2018-05-23T08:21:41.421Z,17.00
2018-05-23T08:24:08.855Z,17.00
2018-05-23T08:26:37.055Z,17.30
2018-05-23T08:29:05.274Z,17.40
2018-05-23T08:31:32.708Z,17.60
2018-05-23T08:34:00.110Z,17.50
2018-05-23T08:36:27.555Z,17.60
2018-05-23T08:38:55.734Z,17.80
2018-05-23T08:41:23.974Z,17.80
2018-05-23T08:43:51.393Z,17.80
2018-05-23T08:46:19.011Z,18.10
2018-05-23T08:48:46.463Z,18.30
2018-05-23T08:51:13.895Z,18.30
2018-05-23T08:53:41.325Z,18.50
2018-05-23T08:56:08.750Z,18.70
2018-05-23T08:58:36.985Z,18.70
2018-05-23T09:01:04.420Z,18.70
2018-05-23T09:03:31.846Z,18.80
2018-05-23T09:05:59.268Z,19.00
2018-05-23T09:08:26.681Z,19.10
2018-05-23T09:10:54.113Z,19.10
2018-05-23T09:13:21.552Z,19.00
2018-05-23T09:15:49.733Z,19.40
2018-05-23T09:18:17.941Z,19.30
2018-05-23T09:20:45.369Z,19.20
2018-05-23T09:23:12.833Z,19.40
2018-05-23T09:25:40.305Z,19.50
2018-05-23T09:28:07.746Z,19.60
2018-05-23T09:30:35.183Z,19.70
2018-05-23T09:33:02.676Z,19.70
2018-05-23T09:35:30.088Z,19.70
2018-05-23T09:37:57.520Z,19.60
2018-05-23T09:40:24.949Z,19.60
2018-05-23T09:42:53.138Z,19.50
2018-05-23T09:45:21.337Z,19.50
2018-05-23T09:47:48.749Z,19.50
2018-05-23T09:50:16.170Z,19.50
2018-05-23T09:52:43.620Z,19.50
2018-05-23T09:55:11.065Z,19.30
2018-05-23T09:57:38.454Z,19.30
2018-05-23T10:00:06.647Z,19.40
2018-05-23T10:02:34.850Z,19.40
2018-05-23T10:05:03.029Z,19.50
2018-05-23T10:07:31.221Z,19.40
2018-05-23T10:09:58.645Z,19.40
2018-05-23T10:12:26.072Z,19.60
2018-05-23T10:14:53.500Z,19.50
2018-05-23T10:17:21.963Z,19.70
2018-05-23T10:19:49.380Z,19.70
2018-05-23T10:22:17.578Z,20.00
2018-05-23T10:24:45.009Z,19.90
2018-05-23T10:27:12.427Z,19.90
2018-05-23T10:29:40.258Z,20.10
2018-05-23T10:32:07.678Z,20.10
2018-05-23T10:34:35.113Z,20.20
2018-05-23T10:37:03.298Z,20.40
2018-05-23T10:39:32.220Z,20.30
2018-05-23T10:42:00.437Z,20.30
2018-05-23T10:44:27.860Z,20.30
2018-05-23T10:46:56.079Z,20.70
2018-05-23T10:49:23.510Z,20.70
2018-05-23T10:51:51.708Z,20.80
2018-05-23T10:54:19.907Z,20.80
2018-05-23T10:56:47.341Z,20.80
2018-05-23T10:59:15.566Z,20.90
2018-05-23T11:01:43.816Z,21.10
2018-05-23T11:04:11.249Z,21.10
2018-05-23T11:06:38.773Z,21.20
2018-05-23T11:09:07.059Z,21.20
2018-05-23T11:11:35.165Z,21.50
2018-05-23T11:14:03.357Z,21.50
2018-05-23T11:16:30.776Z,21.50
2018-05-23T11:18:58.188Z,21.60
2018-05-23T11:21:26.389Z,21.60
2018-05-23T11:23:53.795Z,21.50
2018-05-23T11:26:21.229Z,21.80
2018-05-23T11:28:48.649Z,21.90
2018-05-23T11:31:16.093Z,22.00
2018-05-23T11:33:43.524Z,22.10
2018-05-23T11:36:11.698Z,22.20
2018-05-23T11:38:39.894Z,22.30
2018-05-23T11:41:08.077Z,22.30
2018-05-23T11:43:36.277Z,22.40
2018-05-23T11:46:03.700Z,22.40
2018-05-23T11:48:31.124Z,22.60
2018-05-23T11:50:58.552Z,22.60
2018-05-23T11:53:27.594Z,22.60
2018-05-23T11:55:55.022Z,22.60
2018-05-23T11:58:23.214Z,22.70
2018-05-23T12:00:51.406Z,22.70
2018-05-23T12:03:19.590Z,22.70
2018-05-23T12:05:47.771Z,22.70
2018-05-23T12:08:15.970Z,22.80
2018-05-23T12:10:43.448Z,22.80
2018-05-23T12:13:10.813Z,22.80
2018-05-23T12:15:38.988Z,22.90
2018-05-23T12:18:07.187Z,23.10
2018-05-23T12:20:34.616Z,23.10
2018-05-23T12:23:02.060Z,23.10
2018-05-23T12:25:30.276Z,23.10
2018-05-23T12:27:57.691Z,23.00
2018-05-23T12:30:26.045Z,23.00
2018-05-23T12:32:53.442Z,23.10
2018-05-23T12:35:20.864Z,23.30
2018-05-23T12:37:48.301Z,23.50
2018-05-23T12:40:16.478Z,23.40
2018-05-23T12:42:43.892Z,23.40
2018-05-23T12:45:11.299Z,23.40
2018-05-23T12:47:38.717Z,23.60
2018-05-23T12:50:06.144Z,23.60
2018-05-23T12:52:33.564Z,23.70
2018-05-23T12:55:00.992Z,23.60
2018-05-23T12:57:28.413Z,23.70
2018-05-23T12:59:56.594Z,23.90
2018-05-23T13:02:24.009Z,23.90
2018-05-23T13:04:51.430Z,24.00
2018-05-23T13:07:18.854Z,24.20
2018-05-23T13:09:46.264Z,24.00
2018-05-23T13:12:13.684Z,24.10
2018-05-23T13:14:41.114Z,24.20
2018-05-23T13:17:08.545Z,24.10
2018-05-23T13:19:36.012Z,24.20
2018-05-23T13:22:03.450Z,24.20
2018-05-23T13:24:31.621Z,24.30
2018-05-23T13:26:59.817Z,24.20
2018-05-23T13:29:28.404Z,24.20
2018-05-23T13:31:56.581Z,24.20
2018-05-23T13:34:25.440Z,24.30
2018-05-23T13:36:52.852Z,24.30
2018-05-23T13:39:20.282Z,24.30
2018-05-23T13:41:47.763Z,24.20
2018-05-23T13:44:15.270Z,24.20
2018-05-23T13:46:42.759Z,24.10
2018-05-23T13:49:10.951Z,24.00
2018-05-23T13:51:38.458Z,24.00
2018-05-23T13:54:05.944Z,24.00
2018-05-23T13:56:33.366Z,23.90
2018-05-23T13:59:00.798Z,24.00
2018-05-23T14:01:28.204Z,23.90
2018-05-23T14:03:55.627Z,23.80
2018-05-23T14:06:23.064Z,23.80
2018-05-23T14:08:50.473Z,23.80
2018-05-23T14:11:18.791Z,23.80
2018-05-23T14:13:46.958Z,23.90
2018-05-23T14:16:15.153Z,23.90
2018-05-23T14:18:43.455Z,24.00
2018-05-23T14:21:10.874Z,24.00
2018-05-23T14:23:38.293Z,24.10
2018-05-23T14:26:05.702Z,24.20
2018-05-23T14:28:33.234Z,24.20
2018-05-23T14:31:00.556Z,24.00
2018-05-23T14:33:27.972Z,23.40
2018-05-23T14:35:55.496Z,23.10
2018-05-23T14:38:23.585Z,22.90
2018-05-23T14:40:50.994Z,22.90
2018-05-23T14:43:18.409Z,22.80
2018-05-23T14:45:45.841Z,22.70
2018-05-23T14:48:13.272Z,22.30
2018-05-23T14:50:41.481Z,22.10
2018-05-23T14:53:08.911Z,22.10
2018-05-23T14:55:36.321Z,21.90
2018-05-23T14:58:03.753Z,21.80
2018-05-23T15:00:31.168Z,21.60
2018-05-23T15:02:58.598Z,21.60
2018-05-23T15:05:26.788Z,21.40
2018-05-23T15:07:54.984Z,21.30
2018-05-23T15:10:23.184Z,21.10
2018-05-23T15:12:50.609Z,21.10
2018-05-23T15:15:18.041Z,20.90
2018-05-23T15:17:45.472Z,20.80
2018-05-23T15:20:13.691Z,20.60
2018-05-23T15:22:41.889Z,20.60
2018-05-23T15:25:09.304Z,20.50
2018-05-23T15:27:36.758Z,20.40
2018-05-23T15:30:04.161Z,20.40
2018-05-23T15:32:32.358Z,20.20
2018-05-23T15:34:59.858Z,20.10
2018-05-23T15:37:27.227Z,20.00
2018-05-23T15:39:54.657Z,19.80
2018-05-23T15:42:22.083Z,19.80
2018-05-23T15:44:49.496Z,19.70
2018-05-23T15:47:16.920Z,19.60
2018-05-23T15:49:44.348Z,19.50
2018-05-23T15:52:11.774Z,19.40
2018-05-23T15:54:39.201Z,19.30
2018-05-23T15:57:06.626Z,19.30
2018-05-23T15:59:34.045Z,19.30
2018-05-23T16:02:01.479Z,19.30
2018-05-23T16:04:28.905Z,19.20
2018-05-23T16:06:56.392Z,19.20
2018-05-23T16:09:23.860Z,19.30
2018-05-23T16:11:52.044Z,19.30
2018-05-23T16:14:20.975Z,19.20
2018-05-23T16:16:49.160Z,19.20
2018-05-23T16:19:17.364Z,19.20
2018-05-23T16:21:45.539Z,19.20
2018-05-23T16:24:13.740Z,19.20
2018-05-23T16:26:41.161Z,19.20
2018-05-23T16:29:08.601Z,19.20
2018-05-23T16:31:36.109Z,19.20
2018-05-23T16:34:03.535Z,19.20
2018-05-23T16:36:30.971Z,19.10
2018-05-23T16:38:59.149Z,19.10
2018-05-23T16:41:27.408Z,19.10
2018-05-23T16:43:54.866Z,19.10
2018-05-23T16:46:22.301Z,19.10
2018-05-23T16:48:49.732Z,19.10
2018-05-23T16:51:17.139Z,19.10
2018-05-23T16:53:44.561Z,19.20
2018-05-23T16:56:11.989Z,19.20
2018-05-23T16:58:39.425Z,19.20
2018-05-23T17:01:07.614Z,19.20
2018-05-23T17:03:35.797Z,19.30
2018-05-23T17:06:04.084Z,19.20
2018-05-23T17:08:32.279Z,19.30
2018-05-23T17:11:00.501Z,19.30
2018-05-23T17:13:27.936Z,19.20
2018-05-23T17:15:56.165Z,19.30
2018-05-23T17:18:23.606Z,19.20
2018-05-23T17:20:51.788Z,19.30
2018-05-23T17:23:19.208Z,19.30
2018-05-23T17:25:46.648Z,19.30
2018-05-23T17:28:14.061Z,19.30
2018-05-23T17:30:41.497Z,19.30
2018-05-23T17:33:08.957Z,19.30
2018-05-23T17:35:36.589Z,19.30
2018-05-23T17:38:04.053Z,19.30
2018-05-23T17:40:31.479Z,19.30
2018-05-23T17:42:58.913Z,19.30
2018-05-23T17:45:26.352Z,19.30
2018-05-23T17:47:54.539Z,19.30
2018-05-23T17:50:22.004Z,19.30
2018-05-23T17:52:49.417Z,19.30
2018-05-23T17:55:16.859Z,19.30
2018-05-23T17:57:44.288Z,19.30
2018-05-23T18:00:11.738Z,19.30
2018-05-23T18:02:39.162Z,19.30
2018-05-23T18:05:06.608Z,19.30
2018-05-23T18:07:34.039Z,19.30
2018-05-23T18:10:01.480Z,19.30
2018-05-23T18:12:29.075Z,19.30
2018-05-23T18:14:56.537Z,19.30
2018-05-23T18:17:23.996Z,19.30
2018-05-23T18:19:51.445Z,19.30
2018-05-23T18:22:19.624Z,19.30
2018-05-23T18:24:47.812Z,19.20
2018-05-23T18:27:16.037Z,19.20
2018-05-23T18:29:43.517Z,19.20
2018-05-23T18:32:11.666Z,19.20
2018-05-23T18:34:39.870Z,19.20
2018-05-23T18:37:07.303Z,19.20
2018-05-23T18:39:34.729Z,19.20
2018-05-23T18:42:02.157Z,19.20
2018-05-23T18:44:30.350Z,19.10
2018-05-23T18:46:58.542Z,19.10
2018-05-23T18:49:26.166Z,19.00
2018-05-23T18:51:53.473Z,18.90
2018-05-23T18:54:21.711Z,18.90
2018-05-23T18:56:49.894Z,18.90
2018-05-23T18:59:17.312Z,18.90
2018-05-23T19:01:45.505Z,18.80
2018-05-23T19:04:12.933Z,18.80
2018-05-23T19:06:40.390Z,18.70
2018-05-23T19:09:07.804Z,18.80
2018-05-23T19:11:36.011Z,18.70
2018-05-23T19:14:03.535Z,18.60
2018-05-23T19:16:31.766Z,18.60
2018-05-23T19:18:59.229Z,18.60
2018-05-23T19:21:26.676Z,18.60
2018-05-23T19:23:54.142Z,18.50
2018-05-23T19:26:23.073Z,18.40
2018-05-23T19:28:51.253Z,18.40
2018-05-23T19:31:19.520Z,18.40
2018-05-23T19:33:47.728Z,18.30
2018-05-23T19:36:15.924Z,18.30
2018-05-23T19:38:43.350Z,18.30
2018-05-23T19:41:10.844Z,18.30
2018-05-23T19:43:38.232Z,18.30
2018-05-23T19:46:06.416Z,18.20
2018-05-23T19:48:33.846Z,18.20
2018-05-23T19:51:01.282Z,18.10
2018-05-23T19:53:28.724Z,18.10
2018-05-23T19:55:56.909Z,18.00
2018-05-23T19:58:24.370Z,18.00
2018-05-23T20:00:52.573Z,17.90
2018-05-23T20:03:20.006Z,17.90
2018-05-23T20:05:47.429Z,17.90
2018-05-23T20:08:14.887Z,17.90
2018-05-23T20:10:42.309Z,17.90
2018-05-23T20:13:09.740Z,17.90
2018-05-23T20:15:37.163Z,17.90
2018-05-23T20:18:05.355Z,17.80
2018-05-23T20:20:33.557Z,17.90
2018-05-23T20:23:01.014Z,17.80
2018-05-23T20:25:29.204Z,17.90
2018-05-23T20:27:57.423Z,17.90
2018-05-23T20:30:24.858Z,17.90
2018-05-23T20:32:53.050Z,18.00
2018-05-23T20:35:21.265Z,17.90
2018-05-23T20:37:48.677Z,18.00
2018-05-23T20:40:16.100Z,17.90
2018-05-23T20:42:43.539Z,17.90
2018-05-23T20:45:11.780Z,18.00
2018-05-23T20:47:39.212Z,18.00
2018-05-23T20:50:06.637Z,18.00
2018-05-23T20:52:34.083Z,18.00
2018-05-23T20:55:01.512Z,17.90
2018-05-23T20:57:28.921Z,18.00
2018-05-23T20:59:56.386Z,18.00
2018-05-23T21:02:23.804Z,18.00
2018-05-23T21:04:52.021Z,17.90
2018-05-23T21:07:19.472Z,17.90
2018-05-23T21:09:47.652Z,17.90
2018-05-23T21:12:15.853Z,17.90
2018-05-23T21:14:43.277Z,17.90
2018-05-23T21:17:10.701Z,17.90
2018-05-23T21:19:38.122Z,17.90
2018-05-23T21:22:05.544Z,17.90
2018-05-23T21:24:32.983Z,17.90
2018-05-23T21:27:01.172Z,18.00
2018-05-23T21:29:29.358Z,18.00
2018-05-23T21:31:57.554Z,17.90
2018-05-23T21:34:25.053Z,17.90
2018-05-23T21:36:53.215Z,17.90
2018-05-23T21:39:20.624Z,17.90
2018-05-23T21:41:48.072Z,17.90
2018-05-23T21:44:15.501Z,17.90
2018-05-23T21:46:42.932Z,17.90
2018-05-23T21:49:10.374Z,17.90
2018-05-23T21:51:37.797Z,17.90
2018-05-23T21:54:06.011Z,17.90
2018-05-23T21:56:33.426Z,17.90
2018-05-23T21:59:00.869Z,17.90
2018-05-23T22:01:28.297Z,18.00
2018-05-23T22:03:55.737Z,18.00
2018-05-23T22:06:23.159Z,18.00
2018-05-23T22:08:50.586Z,17.90
2018-05-23T22:11:18.007Z,17.90
2018-05-23T22:13:45.437Z,17.90
2018-05-23T22:16:13.640Z,17.90
2018-05-23T22:18:41.824Z,17.90
2018-05-23T22:21:10.017Z,17.90
2018-05-23T22:23:37.437Z,17.90
2018-05-23T22:26:04.870Z,17.90
2018-05-23T22:28:32.315Z,17.80
2018-05-23T22:31:00.526Z,17.90
2018-05-23T22:33:27.940Z,17.80
2018-05-23T22:35:55.399Z,17.90
2018-05-23T22:38:22.835Z,17.80
2018-05-23T22:40:50.282Z,17.90
2018-05-23T22:43:17.700Z,17.80
2018-05-23T22:45:45.129Z,17.70
2018-05-23T22:48:12.586Z,17.70
2018-05-23T22:50:40.004Z,17.70
2018-05-23T22:53:07.437Z,17.70
2018-05-23T22:55:34.865Z,17.60
2018-05-23T22:58:02.311Z,17.60
2018-05-23T23:00:29.746Z,17.60
2018-05-23T23:02:57.176Z,17.50
2018-05-23T23:05:25.369Z,17.50
2018-05-23T23:07:53.561Z,17.50
2018-05-23T23:10:20.980Z,17.50
2018-05-23T23:12:48.416Z,17.40
2018-05-23T23:15:15.833Z,17.40
2018-05-23T23:17:43.274Z,17.40
2018-05-23T23:20:10.711Z,17.40
2018-05-23T23:22:39.076Z,17.40
2018-05-23T23:25:06.552Z,17.40
2018-05-23T23:27:33.952Z,17.30
2018-05-23T23:30:01.378Z,17.30
2018-05-23T23:32:29.583Z,17.30
2018-05-23T23:34:57.775Z,17.30
2018-05-23T23:37:25.195Z,17.30
2018-05-23T23:39:52.632Z,17.30
2018-05-23T23:42:20.066Z,17.30
2018-05-23T23:44:48.249Z,17.30
2018-05-23T23:47:16.450Z,17.20
2018-05-23T23:49:43.888Z,17.20
2018-05-23T23:52:11.325Z,17.20
2018-05-23T23:54:38.877Z,17.20
2018-05-23T23:57:06.216Z,17.20
2018-05-23T23:59:34.416Z,17.10
